Time;durP1;ratioP1;P1;durP2;ratioP2;P2;SDS_P1;SDS_P2;PMS_P1;PMS_P2;Temp;Humidity;BMP_temperature;BMP_pressure;BME280_temperature;BME280_humidity;BME280_pressure;Samples;Min_cycle;Max_cycle;Signal;HPM_P1;HPM_P2
2023/06/17 00:02:29;;;;;;;31.15;20.00;;;;;;;;;;6259371;28;20060;-58
2023/06/17 00:05:30;;;;;;;32.13;20.40;;;;;;;;;;6257524;28;20049;-58
2023/06/17 00:08:30;;;;;;;32.65;19.70;;;;;;;;;;6256785;28;20045;-59
2023/06/17 00:11:31;;;;;;;32.70;20.30;;;;;;;;;;6257938;28;20049;-59
2023/06/17 00:14:32;;;;;;;33.92;20.17;;;;;;;;;;6257121;28;20057;-60
2023/06/17 00:17:33;;;;;;;34.22;21.17;;;;;;;;;;6257134;28;20095;-59
2023/06/17 00:20:36;;;;;;;34.88;20.23;;;;;;;;;;6258257;28;20051;-59
2023/06/17 00:23:36;;;;;;;35.58;19.98;;;;;;;;;;6257524;28;20131;-59
2023/06/17 00:26:37;;;;;;;33.72;20.23;;;;;;;;;;6257906;28;20562;-60
2023/06/17 00:29:38;;;;;;;35.35;20.83;;;;;;;;;;6258350;28;20033;-60
2023/06/17 00:32:40;;;;;;;32.67;20.77;;;;;;;;;;6255853;28;20060;-60
2023/06/17 00:35:41;;;;;;;38.75;20.60;;;;;;;;;;6255110;28;20141;-56
2023/06/17 00:38:41;;;;;;;36.58;21.67;;;;;;;;;;6258515;28;20076;-60
2023/06/17 00:41:42;;;;;;;37.75;22.02;;;;;;;;;;6256769;28;20053;-59
2023/06/17 00:44:42;;;;;;;33.05;21.10;;;;;;;;;;6255509;28;20147;-60
2023/06/17 00:47:43;;;;;;;36.60;20.50;;;;;;;;;;6260512;28;20416;-59
2023/06/17 00:50:46;;;;;;;32.35;19.58;;;;;;;;;;6263386;28;20483;-60
2023/06/17 00:53:47;;;;;;;31.52;18.50;;;;;;;;;;6259818;28;20095;-59
2023/06/17 00:56:48;;;;;;;36.90;20.00;;;;;;;;;;6255474;28;20521;-60
2023/06/17 00:59:48;;;;;;;30.45;18.70;;;;;;;;;;6262624;28;20049;-60
2023/06/17 01:02:49;;;;;;;30.83;19.35;;;;;;;;;;6256146;28;20044;-60
2023/06/17 01:05:56;;;;;;;30.33;18.52;;;;;;;;;;6257751;28;20057;-59
2023/06/17 01:09:02;;;;;;;34.58;19.15;;;;;;;;;;6256016;28;20415;-59
2023/06/17 01:12:07;;;;;;;30.95;17.67;;;;;;;;;;6255160;28;20047;-59
2023/06/17 01:15:10;;;;;;;31.75;18.85;;;;;;;;;;6253892;28;20493;-60
2023/06/17 01:18:11;;;;;;;29.80;18.10;;;;;;;;;;6250272;28;20055;-60
2023/06/17 01:21:12;;;;;;;30.33;18.05;;;;;;;;;;6256741;28;20041;-59
2023/06/17 01:24:15;;;;;;;26.58;16.90;;;;;;;;;;6216104;28;1185682;-59
2023/06/17 01:27:17;;;;;;;28.13;17.67;;;;;;;;;;6254417;28;20049;-58
2023/06/17 01:30:20;;;;;;;30.38;18.00;;;;;;;;;;6257246;28;20095;-60
2023/06/17 01:33:21;;;;;;;29.42;18.08;;;;;;;;;;6256323;28;20041;-60
2023/06/17 01:36:28;;;;;;;32.05;19.65;;;;;;;;;;6255289;28;20051;-59
2023/06/17 01:39:31;;;;;;;27.85;18.08;;;;;;;;;;6254498;28;20482;-59
2023/06/17 01:42:37;;;;;;;29.05;18.83;;;;;;;;;;6257025;28;20045;-60
2023/06/17 01:45:39;;;;;;;34.38;19.70;;;;;;;;;;6255177;28;21053;-59
2023/06/17 01:48:41;;;;;;;32.30;19.35;;;;;;;;;;6258576;28;20132;-59
2023/06/17 01:51:42;;;;;;;;;;;;;;;;;;6257424;28;20049;-60
2023/06/17 01:54:42;;;;;;;30.55;18.52;;;;;;;;;;6256540;28;19974;-59
2023/06/17 01:57:43;;;;;;;31.63;19.13;;;;;;;;;;6254289;28;20200;-60
2023/06/17 02:00:44;;;;;;;30.90;18.20;;;;;;;;;;6253866;28;20476;-60
2023/06/17 02:03:44;;;;;;;32.22;18.35;;;;;;;;;;6255778;28;20705;-60
2023/06/17 02:06:45;;;;;;;29.92;18.13;;;;;;;;;;6259678;28;20040;-58
2023/06/17 02:09:46;;;;;;;31.70;19.25;;;;;;;;;;6253332;28;20069;-60
2023/06/17 02:12:46;;;;;;;30.73;18.50;;;;;;;;;;6255869;28;20055;-60
2023/06/17 02:15:47;;;;;;;33.50;18.70;;;;;;;;;;6256513;28;20069;-61
2023/06/17 02:18:48;;;;;;;33.65;18.67;;;;;;;;;;6251679;28;20041;-60
2023/06/17 02:21:49;;;;;;;32.20;20.47;;;;;;;;;;6255440;28;20047;-60
2023/06/17 02:24:49;;;;;;;28.50;18.27;;;;;;;;;;6254044;28;20488;-60
2023/06/17 02:27:50;;;;;;;28.73;19.67;;;;;;;;;;6286890;28;20063;-60
2023/06/17 02:30:50;;;;;;;30.63;18.33;;;;;;;;;;6255657;28;20044;-60
2023/06/17 02:33:51;;;;;;;30.30;19.00;;;;;;;;;;6257074;28;20048;-60
2023/06/17 02:36:52;;;;;;;30.63;19.08;;;;;;;;;;6254169;28;20052;-60
2023/06/17 02:39:53;;;;;;;28.65;18.70;;;;;;;;;;6262706;28;20036;-59
2023/06/17 02:42:53;;;;;;;32.05;19.13;;;;;;;;;;6265119;28;20053;-61
2023/06/17 02:45:54;;;;;;;30.83;18.80;;;;;;;;;;6257441;28;20029;-60
2023/06/17 02:48:54;;;;;;;31.25;19.08;;;;;;;;;;6264608;28;20053;-60
2023/06/17 02:51:55;;;;;;;29.80;19.58;;;;;;;;;;6265146;28;20041;-62
2023/06/17 02:54:56;;;;;;;30.10;19.33;;;;;;;;;;6263915;28;20064;-60
2023/06/17 02:57:56;;;;;;;31.65;19.60;;;;;;;;;;6263705;28;20159;-57
2023/06/17 03:00:57;;;;;;;31.20;19.25;;;;;;;;;;6262070;28;20498;-58
2023/06/17 03:04:01;;;;;;;31.93;18.87;;;;;;;;;;6254516;28;20541;-60
2023/06/17 03:07:03;;;;;;;31.92;18.88;;;;;;;;;;6263772;28;20128;-61
2023/06/17 03:10:05;;;;;;;29.83;19.10;;;;;;;;;;6264438;28;20120;-59
2023/06/17 03:13:05;;;;;;;30.07;19.23;;;;;;;;;;6262669;28;20041;-59
2023/06/17 03:16:06;;;;;;;28.17;19.83;;;;;;;;;;6249383;28;20051;-61
2023/06/17 03:19:07;;;;;;;31.63;19.05;;;;;;;;;;6264344;28;20056;-60
2023/06/17 03:22:07;;;;;;;36.47;19.70;;;;;;;;;;6256283;28;20048;-60
2023/06/17 03:25:08;;;;;;;32.42;19.45;;;;;;;;;;6253950;28;20090;-60
2023/06/17 03:28:09;;;;;;;32.07;19.60;;;;;;;;;;6253353;28;22474;-60
2023/06/17 03:31:10;;;;;;;34.03;19.85;;;;;;;;;;6257338;28;20395;-60
2023/06/17 03:34:11;;;;;;;30.48;19.52;;;;;;;;;;6259468;28;20045;-60
2023/06/17 03:37:11;;;;;;;32.70;19.95;;;;;;;;;;6250680;28;20049;-59
2023/06/17 03:40:13;;;;;;;31.85;19.40;;;;;;;;;;6252926;28;20427;-59
2023/06/17 03:43:14;;;;;;;32.78;19.65;;;;;;;;;;6253792;28;20048;-60
2023/06/17 03:46:15;;;;;;;33.42;20.48;;;;;;;;;;6252230;28;20052;-60
2023/06/17 03:49:15;;;;;;;32.05;20.83;;;;;;;;;;6254676;28;20048;-60
2023/06/17 03:52:16;;;;;;;33.95;20.50;;;;;;;;;;6256434;28;20045;-58
2023/06/17 03:55:16;;;;;;;39.47;21.95;;;;;;;;;;6255304;28;20069;-60
2023/06/17 03:58:17;;;;;;;41.30;22.58;;;;;;;;;;6255548;28;20049;-60
2023/06/17 04:01:18;;;;;;;42.95;23.55;;;;;;;;;;6256036;28;20446;-60
2023/06/17 04:04:18;;;;;;;39.08;23.27;;;;;;;;;;6256703;28;20786;-60
2023/06/17 04:07:20;;;;;;;45.72;24.73;;;;;;;;;;6254323;28;20048;-60
2023/06/17 04:10:21;;;;;;;43.88;24.75;;;;;;;;;;6259615;28;20481;-60
2023/06/17 04:13:21;;;;;;;49.20;25.75;;;;;;;;;;6259861;28;20463;-59
2023/06/17 04:16:23;;;;;;;52.08;26.25;;;;;;;;;;6259211;28;20072;-59
2023/06/17 04:19:23;;;;;;;49.93;25.47;;;;;;;;;;6260872;28;20518;-59
2023/06/17 04:22:24;;;;;;;50.05;25.85;;;;;;;;;;6261873;28;20298;-59
2023/06/17 04:25:25;;;;;;;50.45;25.58;;;;;;;;;;6262474;28;20064;-60
2023/06/17 04:28:31;;;;;;;53.97;26.27;;;;;;;;;;6259057;28;20484;-60
2023/06/17 04:31:35;;;;;;;52.08;25.55;;;;;;;;;;6260230;28;20144;-59
2023/06/17 04:34:37;;;;;;;57.97;27.50;;;;;;;;;;6258993;28;20057;-60
2023/06/17 04:37:40;;;;;;;53.17;25.63;;;;;;;;;;6259048;28;20047;-60
2023/06/17 04:40:41;;;;;;;55.35;25.48;;;;;;;;;;6266512;28;20598;-61
2023/06/17 04:43:48;;;;;;;56.42;25.55;;;;;;;;;;6258840;28;20045;-59
2023/06/17 04:46:49;;;;;;;56.55;26.15;;;;;;;;;;6260469;28;20049;-60
2023/06/17 04:49:51;;;;;;;56.63;26.88;;;;;;;;;;6261073;28;20193;-60
2023/06/17 04:52:52;;;;;;;56.08;26.80;;;;;;;;;;6258356;28;20045;-60
2023/06/17 04:55:52;;;;;;;52.70;25.88;;;;;;;;;;6257641;28;20063;-60
2023/06/17 04:58:53;;;;;;;52.78;26.25;;;;;;;;;;6259145;28;20044;-60
2023/06/17 05:01:54;;;;;;;57.95;27.35;;;;;;;;;;6262869;28;20052;-59
2023/06/17 05:04:55;;;;;;;56.13;28.20;;;;;;;;;;6262810;28;20048;-61
2023/06/17 05:07:55;;;;;;;53.60;27.50;;;;;;;;;;6257672;28;20037;-59
2023/06/17 05:10:56;;;;;;;54.67;26.75;;;;;;;;;;6260299;28;20037;-60
2023/06/17 05:13:56;;;;;;;54.63;27.48;;;;;;;;;;6260783;28;20053;-61
2023/06/17 05:16:57;;;;;;;52.65;26.95;;;;;;;;;;6261659;28;20552;-60
2023/06/17 05:19:58;;;;;;;54.83;27.33;;;;;;;;;;6257440;28;20048;-61
2023/06/17 05:22:58;;;;;;;51.90;25.92;;;;;;;;;;6265724;28;20354;-60
2023/06/17 05:25:59;;;;;;;51.10;26.30;;;;;;;;;;6257264;28;20048;-58
2023/06/17 05:29:00;;;;;;;48.83;24.75;;;;;;;;;;6258833;28;20511;-60
2023/06/17 05:32:00;;;;;;;51.35;25.92;;;;;;;;;;6260237;28;20132;-60
2023/06/17 05:35:01;;;;;;;49.53;25.42;;;;;;;;;;6260295;28;20071;-60
2023/06/17 05:38:01;;;;;;;48.65;23.88;;;;;;;;;;6258670;28;20053;-60
2023/06/17 05:41:02;;;;;;;46.95;24.38;;;;;;;;;;6258198;28;20060;-60
2023/06/17 05:44:03;;;;;;;45.72;24.85;;;;;;;;;;6256660;28;20052;-60
2023/06/17 05:47:04;;;;;;;48.17;24.85;;;;;;;;;;6256507;28;20076;-61
2023/06/17 05:50:05;;;;;;;53.33;27.45;;;;;;;;;;6258901;28;20045;-60
2023/06/17 05:53:05;;;;;;;46.50;25.20;;;;;;;;;;6258738;28;20085;-61
2023/06/17 05:56:09;;;;;;;52.85;27.80;;;;;;;;;;6256649;28;20496;-60
2023/06/17 05:59:10;;;;;;;51.47;26.77;;;;;;;;;;6257093;28;20041;-60
2023/06/17 06:02:11;;;;;;;50.92;26.48;;;;;;;;;;6256282;28;20044;-60
2023/06/17 06:05:11;;;;;;;48.08;25.33;;;;;;;;;;6256326;28;20541;-61
2023/06/17 06:08:12;;;;;;;46.78;26.00;;;;;;;;;;6257011;28;20040;-60
2023/06/17 06:11:12;;;;;;;40.42;24.70;;;;;;;;;;6257007;28;20055;-61
2023/06/17 06:14:14;;;;;;;46.00;25.92;;;;;;;;;;6256404;28;20049;-61
2023/06/17 06:17:14;;;;;;;40.47;24.13;;;;;;;;;;6257164;28;20041;-61
2023/06/17 06:20:15;;;;;;;39.45;23.60;;;;;;;;;;6255328;28;20095;-60
2023/06/17 06:23:16;;;;;;;42.17;24.13;;;;;;;;;;6256706;28;20067;-60
2023/06/17 06:26:16;;;;;;;41.97;24.90;;;;;;;;;;6254053;28;20041;-59
2023/06/17 06:29:17;;;;;;;39.65;23.25;;;;;;;;;;6256724;28;20399;-61
2023/06/17 06:32:17;;;;;;;38.78;23.35;;;;;;;;;;6257452;28;20087;-59
2023/06/17 06:35:18;;;;;;;43.30;23.42;;;;;;;;;;6257270;28;20075;-61
2023/06/17 06:38:18;;;;;;;39.65;23.23;;;;;;;;;;6256407;28;20098;-60
2023/06/17 06:41:19;;;;;;;40.20;23.30;;;;;;;;;;6259046;28;20144;-61
2023/06/17 06:44:20;;;;;;;37.80;22.45;;;;;;;;;;6257087;28;20049;-61
2023/06/17 06:47:20;;;;;;;37.47;22.48;;;;;;;;;;6256991;28;20586;-60
2023/06/17 06:50:21;;;;;;;37.95;22.52;;;;;;;;;;6257737;28;20048;-60
2023/06/17 06:53:23;;;;;;;34.77;21.57;;;;;;;;;;6255760;28;20131;-60
2023/06/17 06:56:24;;;;;;;31.60;20.77;;;;;;;;;;6259849;28;20044;-60
2023/06/17 06:59:25;;;;;;;35.00;21.77;;;;;;;;;;6261663;28;20500;-61
2023/06/17 07:02:25;;;;;;;36.53;21.63;;;;;;;;;;6257467;28;20045;-61
2023/06/17 07:05:26;;;;;;;34.90;21.95;;;;;;;;;;6255712;28;20044;-60
2023/06/17 07:08:27;;;;;;;35.43;21.50;;;;;;;;;;6256167;28;20416;-60
2023/06/17 07:11:28;;;;;;;33.73;21.20;;;;;;;;;;6255033;28;20212;-61
2023/06/17 07:14:28;;;;;;;30.40;20.83;;;;;;;;;;6257015;28;20056;-60
2023/06/17 07:17:29;;;;;;;33.80;22.00;;;;;;;;;;6253804;28;20053;-61
2023/06/17 07:20:29;;;;;;;33.80;20.95;;;;;;;;;;6255213;28;20049;-61
2023/06/17 07:23:30;;;;;;;33.33;20.98;;;;;;;;;;6254010;28;20045;-61
2023/06/17 07:26:30;;;;;;;34.13;21.50;;;;;;;;;;6254891;28;20405;-60
2023/06/17 07:29:31;;;;;;;33.63;21.77;;;;;;;;;;6256169;28;20056;-60
2023/06/17 07:32:32;;;;;;;36.07;22.50;;;;;;;;;;6255510;28;20404;-61
2023/06/17 07:35:33;;;;;;;35.33;23.17;;;;;;;;;;6253267;28;20041;-60
2023/06/17 07:38:33;;;;;;;33.63;21.37;;;;;;;;;;6254652;28;20045;-60
2023/06/17 07:41:34;;;;;;;34.30;22.10;;;;;;;;;;6254921;28;20550;-61
2023/06/17 07:44:34;;;;;;;32.97;20.57;;;;;;;;;;6259568;28;20037;-61
2023/06/17 07:47:35;;;;;;;31.40;20.90;;;;;;;;;;6259537;28;20505;-61
2023/06/17 07:50:36;;;;;;;32.23;21.97;;;;;;;;;;6262205;28;20067;-60
2023/06/17 07:53:36;;;;;;;33.30;21.43;;;;;;;;;;6255507;28;20083;-61
2023/06/17 07:56:37;;;;;;;32.70;21.53;;;;;;;;;;6263316;28;20045;-61
2023/06/17 07:59:38;;;;;;;34.38;22.27;;;;;;;;;;6260685;28;20045;-60
2023/06/17 08:02:41;;;;;;;30.80;20.63;;;;;;;;;;6261296;28;20048;-60
2023/06/17 08:05:42;;;;;;;26.83;18.17;;;;;;;;;;6260629;28;20057;-60
2023/06/17 08:08:43;;;;;;;31.50;20.50;;;;;;;;;;6262589;28;20465;-61
2023/06/17 08:11:44;;;;;;;34.83;21.07;;;;;;;;;;6261182;28;20488;-61
2023/06/17 08:14:44;;;;;;;35.92;21.60;;;;;;;;;;6258043;28;20361;-61
2023/06/17 08:17:47;;;;;;;29.63;20.97;;;;;;;;;;6258041;28;20052;-60
2023/06/17 08:20:48;;;;;;;30.83;20.65;;;;;;;;;;6259330;28;20033;-60
2023/06/17 08:23:52;;;;;;;30.87;20.53;;;;;;;;;;6257166;28;20523;-60
2023/06/17 08:26:53;;;;;;;36.08;20.25;;;;;;;;;;6256387;28;20049;-61
2023/06/17 08:29:54;;;;;;;;;;;;;;;;;;6290749;28;20041;-61
2023/06/17 08:32:56;;;;;;;28.23;18.25;;;;;;;;;;6259425;28;20295;-61
2023/06/17 08:35:56;;;;;;;29.60;19.33;;;;;;;;;;6259776;28;20045;-61
2023/06/17 08:38:57;;;;;;;30.37;19.50;;;;;;;;;;6259842;28;20060;-61
2023/06/17 08:41:59;;;;;;;28.50;18.53;;;;;;;;;;6258951;28;20790;-61
2023/06/17 08:45:02;;;;;;;29.80;18.33;;;;;;;;;;6256827;28;20053;-61
2023/06/17 08:48:03;;;;;;;25.52;18.13;;;;;;;;;;6257609;28;20423;-61
2023/06/17 08:51:04;;;;;;;25.70;17.43;;;;;;;;;;6257633;28;20037;-60
2023/06/17 08:54:06;;;;;;;23.27;16.20;;;;;;;;;;6259399;28;20048;-61
2023/06/17 08:57:12;;;;;;;25.07;17.40;;;;;;;;;;6258626;28;20412;-60
2023/06/17 09:00:14;;;;;;;20.05;14.25;;;;;;;;;;6257527;28;20593;-61
2023/06/17 09:03:16;;;;;;;;;;;;;;;;;;6259217;28;20053;-60
2023/06/17 09:06:23;;;;;;;25.27;15.65;;;;;;;;;;6261755;28;19982;-61
2023/06/17 09:09:23;;;;;;;20.80;13.38;;;;;;;;;;6261508;28;20142;-60
2023/06/17 09:12:27;;;;;;;21.53;14.93;;;;;;;;;;6261153;28;20723;-60
2023/06/17 09:15:27;;;;;;;22.15;15.70;;;;;;;;;;6260586;28;20424;-59
2023/06/17 09:18:32;;;;;;;20.17;15.00;;;;;;;;;;6263719;28;20069;-60
2023/06/17 09:21:32;;;;;;;21.73;14.55;;;;;;;;;;6262463;28;20459;-60
2023/06/17 09:24:33;;;;;;;18.07;13.40;;;;;;;;;;6260113;28;20045;-60
2023/06/17 09:27:34;;;;;;;20.97;14.13;;;;;;;;;;6261324;28;20514;-60
2023/06/17 09:30:42;;;;;;;18.83;13.87;;;;;;;;;;6264455;28;20045;-60
2023/06/17 09:33:44;;;;;;;19.60;12.75;;;;;;;;;;6261856;28;20094;-60
2023/06/17 09:36:46;;;;;;;16.75;11.30;;;;;;;;;;6259168;28;20059;-60
2023/06/17 09:39:48;;;;;;;19.58;13.05;;;;;;;;;;6261256;28;20459;-60
2023/06/17 09:42:50;;;;;;;15.02;10.48;;;;;;;;;;6264090;28;20041;-60
2023/06/17 09:46:03;;;;;;;14.13;10.52;;;;;;;;;;6259563;28;20048;-60
2023/06/17 09:49:11;;;;;;;16.25;11.55;;;;;;;;;;6258742;28;20066;-60
2023/06/17 09:52:13;;;;;;;18.30;11.60;;;;;;;;;;6260590;28;20039;-61
2023/06/17 09:55:14;;;;;;;13.95;10.68;;;;;;;;;;6263017;28;20047;-60
2023/06/17 09:58:18;;;;;;;15.35;10.70;;;;;;;;;;6258736;28;20092;-60
2023/06/17 10:01:19;;;;;;;18.02;11.00;;;;;;;;;;6259339;28;20140;-60
2023/06/17 10:04:20;;;;;;;15.10;10.27;;;;;;;;;;6258279;28;20041;-60
2023/06/17 10:07:24;;;;;;;;;;;;;;;;;;6263040;28;20147;-61
2023/06/17 10:10:25;;;;;;;13.05;9.35;;;;;;;;;;6260953;28;19952;-59
2023/06/17 10:13:31;;;;;;;14.60;9.77;;;;;;;;;;6261209;28;20036;-61
2023/06/17 10:16:36;;;;;;;15.90;10.57;;;;;;;;;;6261321;28;20492;-60
2023/06/17 10:19:39;;;;;;;13.57;10.02;;;;;;;;;;6262633;28;20120;-60
2023/06/17 10:22:42;;;;;;;15.85;11.20;;;;;;;;;;6264387;28;20056;-60
2023/06/17 10:25:42;;;;;;;16.27;10.70;;;;;;;;;;6259590;28;20057;-60
2023/06/17 10:28:45;;;;;;;17.07;12.00;;;;;;;;;;6255640;28;20408;-60
2023/06/17 10:31:46;;;;;;;16.00;10.95;;;;;;;;;;6257371;28;20136;-60
2023/06/17 10:35:06;;;;;;;16.97;11.10;;;;;;;;;;6259170;28;20041;-60
2023/06/17 10:38:08;;;;;;;15.82;11.27;;;;;;;;;;6256564;28;20098;-60
2023/06/17 10:41:09;;;;;;;16.13;11.32;;;;;;;;;;6255094;28;20053;-60
2023/06/17 10:44:34;;;;;;;14.35;10.52;;;;;;;;;;6255545;28;20044;-60
2023/06/17 10:47:35;;;;;;;13.63;10.52;;;;;;;;;;6256379;28;20783;-61
2023/06/17 10:50:36;;;;;;;15.07;10.47;;;;;;;;;;6256187;28;20045;-60
2023/06/17 10:53:37;;;;;;;12.73;9.00;;;;;;;;;;6256987;28;20412;-60
2023/06/17 10:56:51;;;;;;;13.05;8.50;;;;;;;;;;6259104;28;20053;-60
2023/06/17 10:59:51;;;;;;;12.27;7.65;;;;;;;;;;6256122;28;20087;-60
2023/06/17 11:02:52;;;;;;;14.73;7.87;;;;;;;;;;6258357;28;20088;-60
2023/06/17 11:05:53;;;;;;;14.17;8.83;;;;;;;;;;6259154;28;20048;-60
2023/06/17 11:08:54;;;;;;;11.63;7.00;;;;;;;;;;6256718;28;20128;-60
2023/06/17 11:11:57;;;;;;;11.07;7.53;;;;;;;;;;6255938;28;20041;-60
2023/06/17 11:14:59;;;;;;;9.88;7.68;;;;;;;;;;6256297;28;20049;-60
2023/06/17 11:18:01;;;;;;;9.40;7.43;;;;;;;;;;6264527;28;20080;-60
2023/06/17 11:21:07;;;;;;;12.68;8.07;;;;;;;;;;6258981;28;20079;-60
2023/06/17 11:24:09;;;;;;;10.18;8.13;;;;;;;;;;6263113;28;20106;-60
2023/06/17 11:27:11;;;;;;;10.95;8.38;;;;;;;;;;6259603;28;20055;-60
2023/06/17 11:30:13;;;;;;;14.35;9.77;;;;;;;;;;6260253;28;20530;-60
2023/06/17 11:33:13;;;;;;;13.13;9.50;;;;;;;;;;6267776;28;20044;-61
2023/06/17 11:36:17;;;;;;;14.30;10.27;;;;;;;;;;6262163;28;20045;-60
2023/06/17 11:39:21;;;;;;;13.45;9.45;;;;;;;;;;6261079;28;20098;-60
2023/06/17 11:42:22;;;;;;;18.95;12.07;;;;;;;;;;6259816;28;20095;-59
2023/06/17 11:45:23;;;;;;;18.70;13.63;;;;;;;;;;6259598;28;20037;-60
2023/06/17 11:48:33;;;;;;;21.33;13.97;;;;;;;;;;6259500;28;20114;-60
2023/06/17 11:51:35;;;;;;;19.92;14.57;;;;;;;;;;6267333;28;20051;-59
2023/06/17 11:54:51;;;;;;;;;;;;;;;;;;6263817;28;20561;-60
2023/06/17 11:57:52;;;;;;;20.00;14.25;;;;;;;;;;6260697;28;19974;-61
2023/06/17 12:00:58;;;;;;;18.70;12.47;;;;;;;;;;6260671;28;20052;-60
2023/06/17 12:03:58;;;;;;;18.95;13.68;;;;;;;;;;6259655;28;20986;-60
2023/06/17 12:06:59;;;;;;;20.30;14.60;;;;;;;;;;6260204;28;20033;-60
2023/06/17 12:10:00;;;;;;;20.27;13.30;;;;;;;;;;6259927;28;20043;-60
2023/06/17 12:13:00;;;;;;;18.03;14.10;;;;;;;;;;6260345;28;20067;-60
2023/06/17 12:16:02;;;;;;;18.07;13.70;;;;;;;;;;6260490;28;20044;-60
2023/06/17 12:19:07;;;;;;;21.77;14.00;;;;;;;;;;6261338;28;20037;-61
2023/06/17 12:22:12;;;;;;;17.83;13.60;;;;;;;;;;6262276;28;20377;-60
2023/06/17 12:25:12;;;;;;;16.10;12.27;;;;;;;;;;6258816;28;20075;-60
2023/06/17 12:28:14;;;;;;;16.07;11.83;;;;;;;;;;6259521;28;20156;-60
2023/06/17 12:31:14;;;;;;;18.98;12.63;;;;;;;;;;6259993;28;20048;-60
2023/06/17 12:34:15;;;;;;;18.63;13.70;;;;;;;;;;6258161;28;20451;-60
2023/06/17 12:37:18;;;;;;;19.47;13.63;;;;;;;;;;6258655;28;20575;-60
2023/06/17 12:40:19;;;;;;;20.10;13.52;;;;;;;;;;6259027;28;20090;-60
2023/06/17 12:43:19;;;;;;;19.87;13.50;;;;;;;;;;6258345;28;20040;-60
2023/06/17 12:46:20;;;;;;;19.37;13.77;;;;;;;;;;6262358;28;20041;-60
2023/06/17 12:49:22;;;;;;;18.83;13.73;;;;;;;;;;6261149;28;20172;-60
2023/06/17 12:52:23;;;;;;;;;;;;;;;;;;6266859;28;20059;-61
2023/06/17 12:55:23;;;;;;;18.48;13.80;;;;;;;;;;6257979;28;19929;-60
2023/06/17 12:58:25;;;;;;;16.03;13.23;;;;;;;;;;6258775;28;20403;-60
2023/06/17 13:01:25;;;;;;;17.55;11.15;;;;;;;;;;6258775;28;20041;-60
2023/06/17 13:04:26;;;;;;;15.03;11.40;;;;;;;;;;6258666;28;20389;-60
2023/06/17 13:07:27;;;;;;;18.07;11.47;;;;;;;;;;6257978;28;20051;-61
2023/06/17 13:10:28;;;;;;;17.30;11.63;;;;;;;;;;6256291;28;20354;-60
2023/06/17 13:13:30;;;;;;;15.83;10.87;;;;;;;;;;6256986;28;20029;-61
2023/06/17 13:16:31;;;;;;;16.33;11.90;;;;;;;;;;6256761;28;20362;-61
2023/06/17 13:19:32;;;;;;;15.40;11.47;;;;;;;;;;6258469;28;20041;-60
2023/06/17 13:22:34;;;;;;;14.30;11.80;;;;;;;;;;6259851;28;20099;-59
2023/06/17 13:25:34;;;;;;;17.00;11.82;;;;;;;;;;6257535;28;20087;-60
2023/06/17 13:28:36;;;;;;;15.93;11.70;;;;;;;;;;6257750;28;20420;-60
2023/06/17 13:31:37;;;;;;;14.15;11.23;;;;;;;;;;6261305;28;20048;-58
2023/06/17 13:34:37;;;;;;;13.17;10.80;;;;;;;;;;6257198;28;20503;-60
2023/06/17 13:37:38;;;;;;;14.13;11.37;;;;;;;;;;6257554;28;20048;-59
2023/06/17 13:40:39;;;;;;;16.92;11.07;;;;;;;;;;6255892;28;20071;-60
2023/06/17 13:43:40;;;;;;;14.77;10.20;;;;;;;;;;6255551;28;20041;-60
2023/06/17 13:46:41;;;;;;;12.48;9.13;;;;;;;;;;6256734;28;20175;-60
2023/06/17 13:49:42;;;;;;;12.90;9.60;;;;;;;;;;6257240;28;20037;-60
2023/06/17 13:52:43;;;;;;;12.57;9.00;;;;;;;;;;6255322;28;20049;-60
2023/06/17 13:55:44;;;;;;;13.40;8.65;;;;;;;;;;6256492;28;20055;-60
2023/06/17 13:58:47;;;;;;;10.47;8.03;;;;;;;;;;6257863;28;20045;-60
2023/06/17 14:01:47;;;;;;;11.02;8.40;;;;;;;;;;6257766;28;20043;-59
2023/06/17 14:04:50;;;;;;;13.50;8.90;;;;;;;;;;6256469;28;20397;-59
2023/06/17 14:07:50;;;;;;;12.02;8.23;;;;;;;;;;6257987;28;20719;-61
2023/06/17 14:10:51;;;;;;;10.63;8.23;;;;;;;;;;6256295;28;20079;-59
2023/06/17 14:13:52;;;;;;;11.80;8.50;;;;;;;;;;6255592;28;20037;-60
2023/06/17 14:16:52;;;;;;;11.43;8.73;;;;;;;;;;6255656;28;20049;-61
2023/06/17 14:19:53;;;;;;;11.70;7.70;;;;;;;;;;6255049;28;20041;-62
2023/06/17 14:22:57;;;;;;;14.43;8.73;;;;;;;;;;6254648;28;20065;-60
2023/06/17 14:25:58;;;;;;;11.93;8.35;;;;;;;;;;6252910;28;20053;-60
2023/06/17 14:28:59;;;;;;;9.70;7.80;;;;;;;;;;6257162;28;20063;-61
2023/06/17 14:31:59;;;;;;;10.17;8.07;;;;;;;;;;6258060;28;20503;-60
2023/06/17 14:35:00;;;;;;;14.17;8.50;;;;;;;;;;6255722;28;20071;-60
2023/06/17 14:38:00;;;;;;;12.00;7.83;;;;;;;;;;6256616;28;20492;-60
2023/06/17 14:41:01;;;;;;;10.33;8.10;;;;;;;;;;6253514;28;20464;-61
2023/06/17 14:44:02;;;;;;;11.43;7.80;;;;;;;;;;6253530;28;20051;-61
2023/06/17 14:47:03;;;;;;;10.57;7.50;;;;;;;;;;6258118;28;20048;-60
2023/06/17 14:50:04;;;;;;;11.67;7.37;;;;;;;;;;6257609;28;20397;-61
2023/06/17 14:53:05;;;;;;;;;;;;;;;;;;6257862;28;20056;-61
2023/06/17 14:56:28;;;;;;;10.73;7.27;;;;;;;;;;6260780;28;20376;-60
2023/06/17 14:59:28;;;;;;;10.02;6.95;;;;;;;;;;6256665;28;20049;-59
2023/06/17 15:02:45;;;;;;;8.53;5.97;;;;;;;;;;6255877;28;20041;-60
2023/06/17 15:05:46;;;;;;;8.25;5.72;;;;;;;;;;6254046;28;20563;-60
2023/06/17 15:08:47;;;;;;;7.57;5.70;;;;;;;;;;6256484;28;20438;-60
2023/06/17 15:11:47;;;;;;;10.17;7.17;;;;;;;;;;6255920;28;20047;-60
2023/06/17 15:14:50;;;;;;;13.60;8.90;;;;;;;;;;6256401;28;20052;-60
2023/06/17 15:17:51;;;;;;;15.82;9.38;;;;;;;;;;6259123;28;20049;-60
2023/06/17 15:20:51;;;;;;;14.03;9.30;;;;;;;;;;6256501;28;20056;-60
2023/06/17 15:23:52;;;;;;;18.53;11.00;;;;;;;;;;6257287;28;20048;-60
2023/06/17 15:26:53;;;;;;;18.40;11.23;;;;;;;;;;6254948;28;20416;-60
2023/06/17 15:29:53;;;;;;;17.47;11.67;;;;;;;;;;6255741;28;20053;-60
2023/06/17 15:32:54;;;;;;;16.87;12.33;;;;;;;;;;6254314;28;20091;-60
2023/06/17 15:35:55;;;;;;;18.50;12.30;;;;;;;;;;6259716;28;20029;-60
2023/06/17 15:39:01;;;;;;;18.13;11.50;;;;;;;;;;6255712;28;20045;-60
2023/06/17 15:42:02;;;;;;;18.38;11.98;;;;;;;;;;6255626;28;20620;-60
2023/06/17 15:45:04;;;;;;;18.50;11.80;;;;;;;;;;6252989;28;20041;-60
2023/06/17 15:48:05;;;;;;;16.98;11.98;;;;;;;;;;6256902;28;20056;-60
2023/06/17 15:51:06;;;;;;;17.10;12.57;;;;;;;;;;6257375;28;20041;-60
2023/06/17 15:54:07;;;;;;;20.73;12.02;;;;;;;;;;6256856;28;20057;-61
2023/06/17 15:57:13;;;;;;;20.75;12.70;;;;;;;;;;6254708;28;20060;-60
2023/06/17 16:00:14;;;;;;;19.20;12.50;;;;;;;;;;6253875;28;20071;-59
2023/06/17 16:03:42;;;;;;;16.40;11.53;;;;;;;;;;6255148;28;20049;-61
2023/06/17 16:06:42;;;;;;;15.43;11.90;;;;;;;;;;6257881;28;20045;-59
2023/06/17 16:09:47;;;;;;;19.70;11.73;;;;;;;;;;6259231;28;20049;-60
2023/06/17 16:12:48;;;;;;;18.80;12.70;;;;;;;;;;6260977;28;20045;-60
2023/06/17 16:15:48;;;;;;;17.77;11.97;;;;;;;;;;6259286;28;20516;-60
2023/06/17 16:18:49;;;;;;;20.83;12.70;;;;;;;;;;6253977;28;20076;-59
2023/06/17 16:21:50;;;;;;;17.03;11.47;;;;;;;;;;6259730;28;20033;-58
2023/06/17 16:24:51;;;;;;;16.20;10.98;;;;;;;;;;6260659;28;20563;-60
2023/06/17 16:27:52;;;;;;;15.95;10.27;;;;;;;;;;6258564;28;20140;-60
2023/06/17 16:30:52;;;;;;;17.30;10.57;;;;;;;;;;6261770;28;20480;-59
2023/06/17 16:33:53;;;;;;;15.77;10.03;;;;;;;;;;6263571;28;20041;-60
2023/06/17 16:36:54;;;;;;;13.70;10.02;;;;;;;;;;6258968;28;20057;-59
2023/06/17 16:39:55;;;;;;;16.60;9.93;;;;;;;;;;6259056;28;20045;-59
2023/06/17 16:42:56;;;;;;;13.27;8.97;;;;;;;;;;6258435;28;20040;-59
2023/06/17 16:45:57;;;;;;;13.02;9.60;;;;;;;;;;6256757;28;20376;-60
2023/06/17 16:48:57;;;;;;;15.30;9.47;;;;;;;;;;6257244;28;20160;-60
2023/06/17 16:51:58;;;;;;;15.00;9.87;;;;;;;;;;6260724;28;20078;-60
2023/06/17 16:54:59;;;;;;;14.67;10.00;;;;;;;;;;6259699;28;20045;-60
2023/06/17 16:57:59;;;;;;;17.27;10.80;;;;;;;;;;6257646;28;20451;-60
2023/06/17 17:01:00;;;;;;;15.73;10.27;;;;;;;;;;6257949;28;20143;-60
2023/06/17 17:04:09;;;;;;;14.53;10.20;;;;;;;;;;6256753;28;20052;-59
2023/06/17 17:07:10;;;;;;;14.27;10.15;;;;;;;;;;6257487;28;20037;-60
2023/06/17 17:10:10;;;;;;;14.30;9.97;;;;;;;;;;6257502;28;20538;-61
2023/06/17 17:13:11;;;;;;;13.37;9.60;;;;;;;;;;6255413;28;20098;-60
2023/06/17 17:16:11;;;;;;;14.27;9.50;;;;;;;;;;6257170;28;20048;-61
2023/06/17 17:19:12;;;;;;;14.93;10.27;;;;;;;;;;6256603;28;20084;-60
2023/06/17 17:22:13;;;;;;;14.73;9.73;;;;;;;;;;6257780;28;20167;-60
2023/06/17 17:25:14;;;;;;;14.97;10.80;;;;;;;;;;6262033;28;20151;-60
2023/06/17 17:28:15;;;;;;;15.90;10.98;;;;;;;;;;6261760;28;20045;-60
2023/06/17 17:31:16;;;;;;;14.07;10.80;;;;;;;;;;6260702;28;20071;-61
2023/06/17 17:34:16;;;;;;;15.13;11.07;;;;;;;;;;6262780;28;20387;-61
2023/06/17 17:37:17;;;;;;;14.43;10.40;;;;;;;;;;6263964;28;20152;-61
2023/06/17 17:40:18;;;;;;;14.23;10.10;;;;;;;;;;6261042;28;20450;-61
2023/06/17 17:43:18;;;;;;;14.47;10.60;;;;;;;;;;6262898;28;20043;-61